Huvudsida
METAR-TAF:

METAR-TAF

Flygplatser :

Oljeplattform

Ekofisk, Norge

latitud: 56-33N, longitud: 003-15E, höjd: 3 m

Aktuellt väderrapport

Denna rapport gjordes för 11 minuter sedan, klockan 00:50 UTC
Vind 31 kt från ost
Temperatur 9°C
Fuktighet 81%
Tryck 1010 hPa
Sikt 10 km eller mer
Inga moln under 1 500 m eller inga cumulonimbus

METAR: ENLE 230050Z 10031KT CAVOK 09/06 Q1010 W08/S3

Tid: 03:01 (01:01 UTC)

Väderprognos

Denna rapport gjordes för 2 timmar och 1 minuter sedan, klockan 23:00 UTC
Prognos gäller från 23 kl. 00 UTC till 23 kl. 09 UTC
Vind 32 kt från ost
Sikt 10 km eller mer
Inga moln under 1 500 m eller inga cumulonimbus

TAF: ENLE 222300Z 2300/2309 10032KT CAVOK

Aktuella väderrapporter och prognoser från 4000 flygplatser (METAR- och TAF-rapporter).

De tillgängliga stationerna syns som gula och röda prickar på kartan.

För musen över prickarna för att se namnen på stationerna.

Klicka sedan för att få väderrapporter och prognoser.

För att ändra kartan: Klicka på de gröna knapparna med ett svart kors på för att zooma in; den gröna knappen med ett streck på för att zooma ut; eller på de gröna pilarna för angränsande kartor.


METAR-TAF: